Timeline UpdatesTrip UpdatesNews PostsPvt PostsTravel TipsAdmin PostsConv PostsFollowed PostsChat RequestsBlog PostsPNR Posts

Disclaimer
Search
 
 
Tue Sep 16, 2014 10:24:57 ISTHomeTrainsΣChainsAtlasPNRForumGalleryNewsFAQTripsMembersLoginFeedback
No Recent News for this Train
Other Trains in the News **new
Latest...
(Slip Coach from Gorakhpur to Kolhapur Run with 15018 L.t.t Exp.deattched at BSL. Coach attached @ Bhusaval on 11040 From BSL To KOP)& Loco reversal @ Allahabad,Daund & Pune.;
Sun Oct 02, 2011 (08:15PM)
⇐ Return Journey: Train# 11039-Slip

15018-Slip/Gorakhpur - Kolhapur Express Slip

Time-Table HAS CHANGED.
Sep 04 (7:44PM)
Change Departure Station:
Change Arrival Station:
Post a Train Travel TipPost a Train Travel Tip **new
Post a Comment/Question/Picture/VideoPost a Comment/Question/Picture/Video
Pantry/Catering
✕ NO Pantry Car
✓ Catering Avbl
Loco/Rake Reversals
DD/Daund Junction (7); PUNE/Pune Junction (6); ALD/Allahabad Junction (10);
RSA - Rake Sharing
Rake/Coach Composition
S1 ,S2 ;;S2 As per PNR Entry --->>http://indiarailinfo.com/pnr/post/359961
Loco
GKP-ET: ET WDM-3A/3D (Twins) ET-BSL: BSL WAP-4 BSL-KOP: PUNE/GTL WDM-3D
News    PNR    Forum    Time-Table    Availability    Fare Chart    Map    Arr/Dep History    Trips    Gallery    ΣChains    X/O    Timeline    
Travel Time: 40h 20m    55 halts    Distance: 1530 km    Avg Speed: 37 km/hr
Type: Mail/Express
Zone: NER/North Eastern
Departs @ 20:25 (Avg 57m late)
Platform# ???
SMTWTFS
Maihar/MYR 
Arrives @ 12:45 +2 nights
Platform# 3
SMTWTFS
Kolhapur CSMT/KOP 

55 halts. 192 intermediate Stations between Maihar and Kolhapur CSMT

Show ALL intermediate Stations  Show Old Time-Table

#CodeStation NameX/OArrivesAvgDepartsAvgHaltPFDay#KmSpeedElevZoneAddress
1GKPGorakhpur Junction (10)  -05:30+2--1-577.56184mNERGorakhpur 273001, Uttar Pradesh
2DEOSDeoria Sadar (3)  06:13 06:18+4506:15 06:20+482m--1-528.44279mNERDeoria- 274001, Uttar Pradesh
3BTTBhatni Junction (5)  06:55 06:50+3807:00 06:55+405m--1-507.64773mNERDeoria, Uttar Pradesh
4SRUSalempur Junction (2)  07:13 07:08+4307:15 07:10+432m--1-497.46371mNERSalempur, Uttar Pradesh
5LRDLar Road (2)  07:24 07:19+4507:26 07:21+452m--1-487.96174mNERDeoria, Uttar Pradesh
6BLTRBelthara Road (2)  07:40 07:34+4707:42 07:36+472m--1-474.84270mNERBelthara, Uttar Pradesh
7IAAIndara Junction (3)X  08:16 08:15+3908:18 08:17+392m--1-447.83174mNERMau, Uttar Pradesh
8MAUMau Junction (4)  08:30 08:32+3808:35 08:37+385m--1-439.96375mNERMau., Uttar Pradesh
9DLRDullahapurX  08:57+3908:59+402m--1-418.93679mNERDullahapur, Uttar Pradesh
10JKNJakhanian  09:13+3509:15+362m--1-410.55782mNERState Highway 67, Uttar Pradesh
11ARJAunrihar Junction (4)  09:45+3309:47+352m--1-382.03380mNERGhazipur, Uttar Pradesh
12BCYVaranasi City (3)X  10:35 10:45+2110:37 10:47+242m--1-350.11177mNERVaranasi, Uttar Pradesh
13BSBVaranasi Junction (9)  11:05+1911:15+2210m41-346.83782mNRVaranasi 221002, Uttar Pradesh
14CHHChaukhandiX  11:41+3011:43+322m--1-331.06784mNR221405, Uttar Pradesh
15SWPRSewapuri (2)  11:49+3711:51+382m11-324.34687mNRState Highway 87, Uttar Pradesh
16KEHKapseti (2)  11:58+4112:00+442m--1-319.05685mNRState Highway 87, Uttar Pradesh
17PRFParsipur (2)X  12:09+4712:11+552m--1-310.67187mNRSant Ravidas Nagar, Uttar Pradesh
18BOYBhadohi (2)  12:18+5912:20+1:022m--1-302.44990mNRUttar Pradesh 221401, Uttar Pradesh
19MOFMondh (2)  12:30+1:0312:32+1:042m21-294.25491mNRUttar Pradesh 221406, Uttar Pradesh
20SAWSuriawan (2)  12:40+1:0812:42+1:092m--1-287.07590mNR221404, Uttar Pradesh
21SQNSarai Kansrai (2)XO  12:50+1:1512:52+1:172m--1-276.93492mNRGopalaha Marg, Uttar Pradesh
22JNHJanghai Junction (3)X  13:49 13:01+3613:51 13:03+382m--1-271.93092mNRUttar Pradesh 212401, Uttar Pradesh
23URPRUgrasenpur (2)  14:23 13:28+2614:25 13:29+302 1m11-259.35796mNRJanghai, Uttar Pradesh
24PLPPhulpur (3)  14:35 13:40+3114:37 13:42+312m--1-248.97993mNRDistrict - Allahabad 212402, Uttar Pradesh
25SYCSarai Chandi  14:50 13:50+3214:52 13:54+312 4m--1-238.4995mNR221507, Uttar Pradesh
26PFMPhaphamau Junction (3)X  15:20+1415:22+162m--1-225.32799mNRAllahabad, Uttar Pradesh
27PRGPrayag Junction (3)  15:36+1315:38+182m--1-219.01796mNRAllahabad, Uttar Pradesh
28ALDAllahabad Junction (10)XO16:00+2816:30+3430m81-212.624100mNCRAllahabad 211003, Uttar Pradesh
29NYNNaini Junction (4)  16:48+4516:50+482m31-205.57298mNCRAllahabad, Uttar Pradesh
30JSRJasra (2)  17:03+5617:05+562m--1-189.96997mNCRJasra, Uttar Pradesh
31SRJShankargarh (3)  17:24+5617:26+572m--1-168.178132mNCRShankargarh, Uttar Pradesh
32DBRDabhaura (2)X  17:51+1:0317:53+1:032m--1-135.640201mNCRDabhaura, Uttar Pradesh
33MKPManikpur Junction (4)X  18:27+4218:32+425m--1-113.180250mNCRManikpur, Uttar Pradesh
34JTWJaitwar (2)X  19:14 19:15+5719:16 19:17+582m--1-55.536321mWCRJaitwar, Madhya Pradesh
35STASatna Junction (3)X  19:50+5020:00+5010m11-35.492322mWCRSatna, Madhya Pradesh
36MYR»Maihar (3)»X  20:23+5720:25+572m--10.084353mWCRMaihar Railway Station, Madhya Pradesh
37KTEKatni Junction (6)X  21:10+1:0621:15+1:115m--163.083387mWCRKatni, Madhya Pradesh
38SHRSihora Road (2)X  21:53+1:1721:55+1:202m--1115.224388mWCRJabalpur, Madhya Pradesh
39JBPJabalpur Junction (4)X  23:30+4423:40+4910m11153.833416mWCRJabalpur, Madhya Pradesh
40MMLMadan Mahal (3)  23:46+4723:48+472m11157.185428mWCRJabalpur, Madhya Pradesh
41SRIDShridham (3)  00:23+5600:25+592m32206.749373mWCRShridham, Madhya Pradesh
42NUNarsinghpur (2)X  01:03+5401:05+552m22237.873365mWCRNarsimhapur, Madhya Pradesh
43KYKareli (2)  01:18+5601:20+582m22253.786361mWCRKareli, Madhya Pradesh
44GARGadarwara (2)X  01:40+5901:42+1:042m22282.272352mWCRNarsinghpur, Madhya Pradesh
45PPIPipariya (3)  02:20 02:23+1:0602:22 02:25+1:092m22331.682338mWCRPiparia, Madhya Pradesh
46SGPSohagpur (2)XO  02:38+1:0902:40+1:052m--2349.330340mWCRSohagpur, Madhya Pradesh
47ETItarsi Junction (7)  04:20+4404:30+1:0510m32398.884329mWCRItarsi 461111, Madhya Pradesh
48BPFBanapura (2)X  04:54+1:1604:56+1:172m22432.277314mWCRBanapura, Madhya Pradesh
49TBNTimarni (2)  05:18+1:1805:20+1:182m12460.561308mWCRTimarni, Madhya Pradesh
50HDHarda (3)O  05:34+1:1705:36+1:172m22474.676289mWCRHarda, Madhya Pradesh
51KKNKhirkiya (2)  06:01+1:1406:03+1:142m12506.172281mWCRSH 15, Madhya Pradesh
52BRUDBarud (2)  06:20+1:0906:22+1:112m--2526.668273mWCRKhandwa, Madhya Pradesh
53CAERChhanera (2)  06:31+1:1006:33+1:102m22536.860283mWCRChhanera, Madhya Pradesh
54SGBJSurgaon Banjari (2) new halt!!X  06:51+1:0906:53+1:112m--2554.779298mWCRKhandwa, Madhya Pradesh
55TLVTalvadiya (2)XO  07:02+1:1007:04+1:112m12566.513308mWCRKhandwa, Madhya Pradesh
56KNWKhandwa Junction (5)  08:15+2508:20+255m22582.278310mCRKhandwa, Madhya Pradesh
57NPNRNepanagar (2)X  08:53+2708:55+272m12624.887289mCRState Highway 27, Madhya Pradesh
58BAUBurhanpur (2)  09:13+3509:15+352m12651.181269mCRBurhanpur, Madhya Pradesh
59RVRaver (2)  09:30+3609:32+372m12671.362242mCRJalgaon, Maharashtra
60BSLBhusaval Junction (8)XO10:05+3517:50-465m42705.659208mCRBhusaval 425201, Maharashtra
61YLYeola (2)XO  21:28-21:30-2m12918.346553mCRYeola, Maharashtra
62KPGKopargaon (2)  21:48-21:50-2m22932.034508mCRKopargaon 423601, Maharashtra
63PBPuntamba Junction (2)XO  22:33-22:35-2m22956.337501mCRPuntamba, Maharashtra
64BAPBelapur (2)  23:08-23:10-2m22976.646541mCRShrirampur, Maharashtra
65ANGAhmadnagar (2)X  00:37-00:42-5m131043.741650mCRAhmednagar 414001, Maharashtra
66DDDaund Junction (7)XO02:45-03:00-15m231127.946521mCRNew Daund Dist. Pune 413801, Maharashtra
67KDGKedgaon (2)  03:28-03:30-2m131149.484544mCRDist. Pune 412203, Maharashtra
68URIUruli (2)X  03:48-03:50-2m131174.735553mCRDist. Pune 412202, Maharashtra
69PUNEPune Junction (6)O04:35 04:40-04:50-15 10m331203.428556mCRPune 411001, Maharashtra
70GPRGhorpuri (2)  04:55-04:57-2m131205.766558mCRPune, Maharashtra
71JJRJejuri (1)X  05:48-05:50-2m131261.642697mCRDist. Pune 412303, Maharashtra
72NIRANira (1)O  06:28-06:30-2m131288.257553mCRDist. Pune 412102, Maharashtra
73LNNLonandX  06:38-06:40-2m131295.850594mCRJn Point Daund /Miraj /Pune, Maharashtra
74WTRWathar  07:13-07:15-2m131323.285799mCRSatara, Maharashtra
75JSVJarandeshwar  07:28-07:30-2m131341.515678mCRSH 61, Maharashtra
76STRSatara (3)O  08:00-08:03-3m231349.271637mCRSatara, Maharashtra
77KRGKoregaonO  08:12-08:14-2m131359.956658mCRKoregaon, Maharashtra
78RMPRahimatpurXO  08:25-08:27-2m131370.260626mCRSatara, Maharashtra
79TAZTargaonO  08:38-08:40-2m131381.270617mCRSatara, Maharashtra
80MSRMasurO  08:51-08:53-2m131394.036610mCRSatara, Maharashtra
81KRDKarad (3)O  09:16-09:18-2m131407.885597mCRDist- Satara., Maharashtra
82BVNRBhavani NagarO  09:33-09:35-2m131429.174578mCRTasgaon Rd, Maharashtra
83TKRTakariO  09:40-09:42-2m131435.233558mCRSangli, Maharashtra
84KOVKirloskarvadiX  09:56-09:58-2m131442.855570mCRSangli, Maharashtra
85BVQBhilavdi  10:13-10:15-2m131456.731570mCRSangli, Maharashtra
86SLISangli (3)  10:52-10:55-3m231475.722559mCRSangli, Maharashtra
87MRJMiraj Junction (6)O  11:15-11:20-5m331483.065554mCRMiraj 416410, Maharashtra
88JSPJayasingpurX  11:31-11:33-2m131494.958550mCRJaysingpur, Maharashtra
89HTKHatkanagale (2)XO  11:48-11:50-2m131509.456591mCRDist. Kolhapur 416115, Maharashtra
90RKDRukadi (1)O  11:58-12:00-2m231516.950544mCRKolhapur, Maharashtra
91VVValivade  12:08-12:10-2m131523.511554mCRValivade, Maharashtra
92KOP•Kolhapur CSMT (3)•  12:45--331530.1-563mCRKolhapur 416001, Maharashtra
Scroll to Top
Scroll to Bottom